INFORMACIÓN METAR y TAF
METAR FOR LECO
ADDS - METARS form results

(0622 UTC 20 January 2020)
Data provider http://aviationweather.gov/metar/data/
 
METAR text: LECO 200600Z 05012KT 010V080 9999 -RA BKN037 07/03 Q1035 NOSIG
Conditions at: LECO (LA CORUNA/ALVEDR, ES) observed 0600 UTC 20 January 2020
Temperature: 7.0°C (45°F)
Dewpoint: 3.0°C (37°F) [RH = 76%]
Pressure (altimeter): 30.56 inches Hg (1035.0 mb)
Winds: from the NE (50 degrees) at 14 MPH (12 knots; 6.2 m/s)
Visibility: 6 or more miles (10+ km)
Ceiling: 3700 feet AGL
Clouds: broken clouds at 3700 feet AGL
Weather: -RA  (light rain)

METAR text: LECO 200530Z 09011KT 060V150 9999 -RA BKN040 08/02 Q1034 NOSIG
Conditions at: LECO (LA CORUNA/ALVEDR, ES) observed 0530 UTC 20 January 2020
Temperature: 8.0°C (46°F)
Dewpoint: 2.0°C (36°F) [RH = 66%]
Pressure (altimeter): 30.53 inches Hg (1034.0 mb)
Winds: from the E (90 degrees) at 13 MPH (11 knots; 5.7 m/s)
Visibility: 6 or more miles (10+ km)
Ceiling: 4000 feet AGL
Clouds: broken clouds at 4000 feet AGL
Weather: -RA  (light rain)

Forecast for: LECO (LA CORUNA/ALVEDR, ES)
Text: TAF LECO 200200Z 2003/2103 06009KT CAVOK TX10/2015Z TN04/2007Z
Forecast period: 0300 UTC 20 January 2020 to 0300 UTC 21 January 2020
Forecast type: FROM: standard forecast or significant change
Winds: from the ENE (60 degrees) at 10 MPH (9 knots; 4.6 m/s)
Visibility: 6 or more miles 10+ km)
Ceiling: unknown
Clouds: missing
Weather: no significant weather forecast for this period
Text: PROB40
Forecast period: 0300 to 1000 UTC 20 January 2020
Forecast type: TEMPORARY: The following changes expected for less than half the time period
Winds: from the ENE (60 degrees) at 17 MPH (15 knots; 7.7 m/s)
gusting to 29 MPH (25 knots; 12.9 m/s)
Visibility: missing
Ceiling: unknown
Clouds: missing
Weather: no significant weather forecast for this period
Text: TEMPO 2003/2010 06015G25KT
Forecast period: 1000 to 1900 UTC 20 January 2020
Forecast type: TEMPORARY: The following changes expected for less than half the time period
Winds: from the ENE (60 degrees) at 17 MPH (15 knots; 7.7 m/s)
gusting to 32 MPH (28 knots; 14.4 m/s)
Visibility: missing
Ceiling: unknown
Clouds: missing
Weather: no significant weather forecast for this period

MAPA DE AEROPUERTO

INFORMACIÓN DE PISTA
Pista 03 Longitud 6358 ft Ancho 148 ft
Elevación 327 ft Umbral desplazado 0 ft Rumbo de pista 31
Pista 21 Longitud 6358 ft Ancho 148 ft
Elevación 286 ft Umbral desplazado 0 ft Rumbo de pista 211

FRECUANCIAS DEL AEROPUERTO
Tipo APP Nombre SANTIAGO A Frecuencia 120.2 MHZ
Tipo GND Nombre GND Frecuencia 121.7 MHZ
Tipo TWR Nombre A Coruña T Frecuencia 118.3 MHZ

RADIO AYUDAS DEL AEROPUERTO
Tipo NDB Nombre La Coruna Frecuencia 401 KHZ
Tipo VOR-DME Nombre La Coruna Frecuencia 115100 KHZ